Time;durP1;ratioP1;P1;durP2;ratioP2;P2;SDS_P1;SDS_P2;PMS_P1;PMS_P2;Temp;Humidity;BMP_temperature;BMP_pressure;BME280_temperature;BME280_humidity;BME280_pressure;Samples;Min_cycle;Max_cycle;Signal;HPM_P1;HPM_P2
2023/10/15 00:00:21;;;;;;;12.73;4.63;;;;;;;23.69;57.02;98452.94;2079586;28;20041;-67
2023/10/15 00:01:22;;;;;;;8.50;3.85;;;;;;;23.66;56.90;98452.63;2083033;28;20059;-67
2023/10/15 00:02:23;;;;;;;9.95;4.50;;;;;;;23.67;57.14;98455.06;2081452;28;20041;-66
2023/10/15 00:03:25;;;;;;;8.88;3.97;;;;;;;23.66;56.44;98453.44;2081896;28;20131;-67
2023/10/15 00:04:26;;;;;;;8.15;3.42;;;;;;;23.67;56.97;98455.06;2080363;28;20045;-67
2023/10/15 00:05:28;;;;;;;5.50;4.30;;;;;;;23.71;57.19;98453.56;2080825;28;20049;-67
2023/10/15 00:06:30;;;;;;;9.63;4.38;;;;;;;23.66;57.15;98445.31;2079787;28;20044;-66
2023/10/15 00:07:31;;;;;;;12.32;4.13;;;;;;;23.69;56.88;98452.13;2081412;28;20128;-67
2023/10/15 00:08:33;;;;;;;4.95;3.42;;;;;;;23.64;56.75;98452.84;2082885;28;20045;-66
2023/10/15 00:09:33;;;;;;;5.85;3.70;;;;;;;23.67;56.87;98456.97;2080420;28;20049;-66
2023/10/15 00:10:36;;;;;;;5.10;4.25;;;;;;;23.71;56.81;98450.00;2079843;28;20048;-67
2023/10/15 00:11:37;;;;;;;9.27;4.55;;;;;;;23.69;56.69;98450.25;2078513;28;20053;-67
2023/10/15 00:12:40;;;;;;;10.77;3.83;;;;;;;23.66;56.89;98453.44;2080923;28;20520;-67
2023/10/15 00:13:41;;;;;;;6.60;3.28;;;;;;;23.69;56.89;98444.81;2081810;28;20502;-67
2023/10/15 00:14:43;;;;;;;10.15;3.95;;;;;;;23.68;56.78;98453.16;2082211;28;20151;-67
2023/10/15 00:15:45;;;;;;;7.25;3.72;;;;;;;23.67;56.87;98449.66;2079223;28;20044;-67
2023/10/15 00:16:47;;;;;;;8.13;4.00;;;;;;;23.66;57.18;98450.72;2083622;28;20930;-67
2023/10/15 00:17:50;;;;;;;7.70;3.90;;;;;;;23.66;56.79;98445.31;2077782;28;20072;-67
2023/10/15 00:18:51;;;;;;;8.20;4.25;;;;;;;23.68;56.83;98448.59;2082390;28;20124;-66
2023/10/15 00:19:55;;;;;;;7.22;4.47;;;;;;;23.67;56.99;98441.53;2078744;28;20048;-67
2023/10/15 00:21:01;;;;;;;7.60;3.65;;;;;;;23.69;57.16;98444.00;2080194;28;20045;-66
2023/10/15 00:22:07;;;;;;;7.43;4.57;;;;;;;23.65;56.85;98430.09;2076908;28;20041;-67
2023/10/15 00:23:09;;;;;;;6.78;3.92;;;;;;;23.66;57.12;98428.25;2080641;28;20524;-67
2023/10/15 00:24:11;;;;;;;16.17;4.32;;;;;;;23.64;57.16;98429.28;2078316;28;20049;-66
2023/10/15 00:25:14;;;;;;;8.00;3.70;;;;;;;23.65;56.91;98427.41;2083334;28;20053;-67
2023/10/15 00:26:16;;;;;;;6.97;3.72;;;;;;;23.67;56.85;98422.56;2080128;28;20051;-67
2023/10/15 00:27:17;;;;;;;5.93;4.07;;;;;;;23.66;56.87;98422.84;2082028;28;20392;-67
2023/10/15 00:28:19;;;;;;;7.20;4.25;;;;;;;23.66;56.91;98420.94;2080481;28;20531;-67
2023/10/15 00:29:22;;;;;;;11.80;4.65;;;;;;;23.66;57.14;98415.53;2080882;28;20053;-67
2023/10/15 00:30:31;;;;;;;6.95;3.90;;;;;;;23.66;56.71;98420.94;2080034;28;20134;-67
2023/10/15 00:31:34;;;;;;;6.00;4.10;;;;;;;23.64;56.97;98421.16;2081008;28;20060;-67
2023/10/15 00:32:36;;;;;;;8.13;4.22;;;;;;;23.67;56.97;98419.03;2070338;28;20148;-66
2023/10/15 00:33:37;;;;;;;5.55;3.60;;;;;;;23.66;56.96;98409.28;2078723;28;20125;-66
2023/10/15 00:34:39;;;;;;;6.80;4.30;;;;;;;23.67;56.75;98411.75;2080199;28;21475;-67
2023/10/15 00:35:44;;;;;;;6.25;4.22;;;;;;;23.66;56.80;98404.69;2076805;28;20052;-66
2023/10/15 00:36:48;;;;;;;5.82;3.42;;;;;;;23.64;57.06;98409.53;2079944;28;20482;-66
2023/10/15 00:37:54;;;;;;;8.25;4.18;;;;;;;23.63;57.07;98406.00;2080501;28;20454;-67
2023/10/15 00:38:56;;;;;;;7.70;3.63;;;;;;;23.63;56.91;98397.88;2080762;28;20530;-66
2023/10/15 00:39:59;;;;;;;8.48;4.05;;;;;;;23.62;56.93;98395.41;2081851;28;20107;-67
2023/10/15 00:41:07;;;;;;;11.20;4.45;;;;;;;23.60;56.78;98392.13;2078523;28;20695;-66
2023/10/15 00:42:08;;;;;;;7.78;3.85;;;;;;;23.62;56.90;98393.53;2079509;28;20041;-67
2023/10/15 00:43:13;;;;;;;5.68;3.83;;;;;;;23.62;57.16;98401.66;2081557;28;20079;-67
2023/10/15 00:44:15;;;;;;;11.10;4.53;;;;;;;23.64;57.01;98395.97;2078782;28;20496;-67
2023/10/15 00:45:18;;;;;;;7.72;3.60;;;;;;;23.64;56.92;98396.81;2081420;28;20053;-67
2023/10/15 00:46:19;;;;;;;7.95;4.13;;;;;;;23.63;57.06;98397.88;2080483;28;20048;-67
2023/10/15 00:47:23;;;;;;;11.57;4.32;;;;;;;23.65;57.03;98389.50;2080849;28;20526;-68
2023/10/15 00:48:24;;;;;;;5.03;3.58;;;;;;;23.64;57.02;98393.28;2080862;28;20041;-67
2023/10/15 00:49:27;;;;;;;5.63;3.80;;;;;;;23.62;57.24;98395.41;2082401;28;20048;-67
2023/10/15 00:50:31;;;;;;;8.75;3.85;;;;;;;23.64;56.98;98395.97;2083488;28;20086;-67
2023/10/15 00:51:33;;;;;;;5.65;3.90;;;;;;;23.63;56.71;98383.53;2080907;28;20102;-67
2023/10/15 00:52:37;;;;;;;6.13;3.67;;;;;;;23.65;56.92;98386.78;2067823;28;20049;-66
2023/10/15 00:53:47;;;;;;;6.20;3.80;;;;;;;23.63;56.67;98380.81;2080909;28;20049;-66
2023/10/15 00:54:50;;;;;;;5.82;3.13;;;;;;;23.62;57.15;98380.00;2081960;28;20077;-67
2023/10/15 00:55:52;;;;;;;7.65;4.40;;;;;;;23.63;56.76;98372.69;2078351;28;20049;-67
2023/10/15 00:56:55;;;;;;;6.00;3.50;;;;;;;23.63;56.97;98373.50;2082016;28;20368;-67
2023/10/15 00:57:56;;;;;;;3.97;3.33;;;;;;;23.64;56.93;98363.50;2081585;28;20602;-67
2023/10/15 00:59:16;;;;;;;7.78;3.78;;;;;;;23.62;57.07;98355.63;2079506;28;20044;-66
2023/10/15 01:00:39;;;;;;;7.18;4.07;;;;;;;23.60;57.10;98360.47;2080637;28;20056;-67
2023/10/15 01:01:43;;;;;;;8.52;4.05;;;;;;;23.58;57.05;98359.88;2078494;28;20076;-67
2023/10/15 01:02:51;;;;;;;10.75;4.13;;;;;;;23.59;56.90;98356.09;2082079;28;20041;-66
2023/10/15 01:03:56;;;;;;;6.68;3.65;;;;;;;23.60;57.21;98356.94;2081022;28;20052;-67
2023/10/15 01:05:00;;;;;;;7.15;4.35;;;;;;;23.58;56.90;98354.47;2078260;28;20048;-67
2023/10/15 01:06:02;;;;;;;6.18;3.47;;;;;;;23.59;57.04;98350.69;2076010;28;20111;-66
2023/10/15 01:07:20;;;;;;;6.75;4.20;;;;;;;23.61;57.04;98350.44;2077893;28;20586;-67
2023/10/15 01:08:31;;;;;;;9.10;3.90;;;;;;;23.55;57.05;98351.44;2076600;28;20091;-67
2023/10/15 01:09:33;;;;;;;8.70;4.05;;;;;;;23.56;57.25;98353.88;2074928;28;20052;-66
2023/10/15 01:10:36;;;;;;;11.43;4.60;;;;;;;23.55;57.13;98356.84;2079037;28;20064;-67
2023/10/15 01:11:43;;;;;;;8.68;4.45;;;;;;;23.58;57.12;98354.47;2079360;28;20166;-67
2023/10/15 01:12:44;;;;;;;7.70;3.85;;;;;;;23.58;57.30;98353.66;2078380;28;20056;-67
2023/10/15 01:13:47;;;;;;;10.35;3.78;;;;;;;23.57;57.20;98360.13;2074133;28;20471;-67
2023/10/15 01:14:47;;;;;;;4.03;3.58;;;;;;;23.58;57.15;98351.75;2081165;28;20534;-67
2023/10/15 01:15:54;;;;;;;8.30;3.97;;;;;;;23.58;57.27;98354.47;2076348;28;20136;-66
2023/10/15 01:16:55;;;;;;;6.75;3.47;;;;;;;23.58;57.11;98342.81;2072020;28;20049;-67
2023/10/15 01:18:06;;;;;;;7.10;4.03;;;;;;;23.58;57.20;98353.66;2075530;28;20069;-67
2023/10/15 01:19:15;;;;;;;7.72;4.32;;;;;;;23.57;57.06;98352.81;2079190;28;20115;-67
2023/10/15 01:20:18;;;;;;;8.50;4.32;;;;;;;23.58;56.95;98361.75;2079107;28;20426;-66
2023/10/15 01:21:19;;;;;;;7.20;3.53;;;;;;;23.56;57.27;98348.47;2078037;28;20106;-67
2023/10/15 01:22:23;;;;;;;8.15;3.97;;;;;;;23.53;57.26;98346.25;2077336;28;20178;-66
2023/10/15 01:23:28;;;;;;;8.77;4.38;;;;;;;23.56;57.17;98353.06;2077443;28;20049;-67
2023/10/15 01:24:32;;;;;;;5.57;3.90;;;;;;;23.55;57.25;98354.13;2076682;28;20103;-67
2023/10/15 01:25:38;;;;;;;7.93;4.32;;;;;;;23.54;56.92;98355.19;2078737;28;20060;-67
2023/10/15 01:26:40;;;;;;;8.23;4.15;;;;;;;23.57;57.23;98352.00;2077364;28;20098;-67
2023/10/15 01:27:41;;;;;;;8.57;4.63;;;;;;;23.56;56.87;98345.75;2080555;28;20593;-66
2023/10/15 01:28:43;;;;;;;11.60;4.22;;;;;;;23.60;57.21;98352.34;2078836;28;20045;-67
2023/10/15 01:29:47;;;;;;;7.57;4.43;;;;;;;23.59;57.13;98342.56;2079622;28;20045;-66
2023/10/15 01:30:50;;;;;;;8.63;4.57;;;;;;;23.58;57.13;98340.94;2076776;28;20072;-66
2023/10/15 01:31:51;;;;;;;8.75;3.97;;;;;;;23.57;57.28;98347.41;2076321;28;20048;-65
2023/10/15 01:32:54;;;;;;;9.10;3.55;;;;;;;23.58;57.22;98348.22;2077794;28;20438;-67
2023/10/15 01:33:56;;;;;;;8.45;4.47;;;;;;;23.57;57.17;98342.00;2075842;28;20053;-67
2023/10/15 01:34:59;;;;;;;8.23;4.15;;;;;;;23.57;57.11;98336.59;2081013;28;20048;-66
2023/10/15 01:36:06;;;;;;;8.30;3.78;;;;;;;23.60;57.01;98336.09;2077700;28;20057;-66
2023/10/15 01:37:15;;;;;;;7.72;3.75;;;;;;;23.58;57.06;98332.81;2077008;28;20084;-67
2023/10/15 01:38:21;;;;;;;10.55;4.70;;;;;;;23.57;57.37;98341.19;2080990;28;20079;-66
2023/10/15 01:39:32;;;;;;;9.45;4.38;;;;;;;23.55;57.21;98336.00;2079312;28;20052;-66
2023/10/15 01:40:37;;;;;;;;;;;;;;;23.44;57.58;98339.59;2080173;28;20451;-67
2023/10/15 01:41:42;;;;;;;7.25;3.83;;;;;;;23.50;57.22;98341.31;2079804;28;19924;-67
2023/10/15 01:42:46;;;;;;;11.75;3.95;;;;;;;23.51;57.10;98332.13;2076434;28;20060;-66
2023/10/15 01:43:50;;;;;;;7.43;4.20;;;;;;;23.52;57.33;98338.38;2073767;28;20053;-67
2023/10/15 01:44:53;;;;;;;11.30;4.20;;;;;;;23.53;57.26;98330.00;2077093;28;20063;-66
2023/10/15 01:45:58;;;;;;;5.40;3.90;;;;;;;23.56;57.25;98328.69;2077222;28;20055;-66
2023/10/15 01:47:08;;;;;;;6.43;4.00;;;;;;;23.55;57.20;98333.28;2076785;28;20528;-66
2023/10/15 01:48:24;;;;;;;7.20;4.47;;;;;;;23.54;57.50;98334.38;2077945;28;21584;-67
2023/10/15 01:49:31;;;;;;;8.23;4.07;;;;;;;23.54;57.21;98330.81;2081476;28;20051;-67
2023/10/15 01:50:43;;;;;;;7.80;4.72;;;;;;;23.51;57.19;98331.31;2076907;28;20123;-67
2023/10/15 01:51:45;;;;;;;10.23;4.55;;;;;;;23.52;57.20;98327.56;2068975;28;20050;-67
2023/10/15 01:52:47;;;;;;;4.40;3.40;;;;;;;23.54;57.23;98328.09;2076447;28;20072;-67
2023/10/15 01:53:48;;;;;;;5.57;3.67;;;;;;;23.55;57.16;98321.66;2077986;28;20060;-67
2023/10/15 01:54:50;;;;;;;9.43;4.35;;;;;;;23.53;57.34;98323.78;2078046;28;20045;-67
2023/10/15 01:55:59;;;;;;;11.82;5.03;;;;;;;23.53;57.25;98323.78;2078472;28;20579;-67
2023/10/15 01:57:06;;;;;;;8.88;4.53;;;;;;;23.54;57.06;98320.84;2078975;28;20060;-66
2023/10/15 01:58:12;;;;;;;7.03;5.32;;;;;;;23.53;57.36;98321.06;2076879;28;20219;-66
2023/10/15 01:59:16;;;;;;;9.75;4.47;;;;;;;23.52;57.30;98320.25;2076166;28;20053;-67
2023/10/15 02:00:32;;;;;;;6.93;4.45;;;;;;;23.52;57.48;98322.13;2075297;28;20099;-67
2023/10/15 02:01:37;;;;;;;7.45;4.03;;;;;;;23.48;57.43;98323.66;2077750;28;20061;-66
2023/10/15 02:02:38;;;;;;;14.82;4.25;;;;;;;23.48;57.54;98326.38;2079135;28;20045;-66
2023/10/15 02:03:41;;;;;;;8.25;4.38;;;;;;;23.50;57.53;98325.06;2078164;28;20047;-67
2023/10/15 02:04:44;;;;;;;7.28;3.65;;;;;;;23.51;57.40;98317.75;2080481;28;20073;-67
2023/10/15 02:05:46;;;;;;;13.65;4.75;;;;;;;23.52;57.28;98319.44;2080458;28;20044;-67
2023/10/15 02:06:46;;;;;;;7.70;4.63;;;;;;;23.54;57.50;98314.56;2080646;28;20053;-67
2023/10/15 02:07:48;;;;;;;9.80;4.38;;;;;;;23.53;57.31;98318.34;2076588;28;20080;-65
2023/10/15 02:08:51;;;;;;;7.22;3.80;;;;;;;23.51;57.34;98310.47;2077088;28;20057;-66
2023/10/15 02:09:53;;;;;;;9.45;4.45;;;;;;;23.53;57.25;98302.94;2079118;28;20463;-67
2023/10/15 02:10:54;;;;;;;9.07;4.47;;;;;;;23.52;57.16;98312.13;2079160;28;20041;-67
2023/10/15 02:11:56;;;;;;;10.95;4.80;;;;;;;23.53;57.27;98304.81;2080119;28;20104;-67
2023/10/15 02:12:59;;;;;;;6.93;3.80;;;;;;;23.56;57.19;98307.03;2077130;28;20118;-67
2023/10/15 02:14:01;;;;;;;7.40;4.47;;;;;;;23.54;57.35;98317.28;2074285;28;20064;-67
2023/10/15 02:15:15;;;;;;;8.70;4.18;;;;;;;23.55;57.07;98310.81;2079241;28;20053;-67
2023/10/15 02:16:16;;;;;;;8.07;4.88;;;;;;;23.51;57.25;98318.59;2067027;28;20060;-66
2023/10/15 02:17:19;;;;;;;8.30;3.90;;;;;;;23.51;57.12;98315.88;2074675;28;20404;-67
2023/10/15 02:18:20;;;;;;;9.02;4.70;;;;;;;23.53;57.20;98307.53;2074981;28;20495;-66
2023/10/15 02:19:34;;;;;;;10.38;4.35;;;;;;;23.53;57.34;98305.63;2077746;28;20056;-66
2023/10/15 02:20:59;;;;;;;6.22;3.35;;;;;;;23.51;57.25;98309.66;2080732;28;20123;-67
2023/10/15 02:22:02;;;;;;;10.88;3.92;;;;;;;23.48;57.14;98310.13;2076084;28;20175;-67
2023/10/15 02:23:03;;;;;;;4.75;2.88;;;;;;;23.51;57.24;98309.66;2078586;28;20490;-67
2023/10/15 02:24:08;;;;;;;6.95;4.20;;;;;;;23.51;57.17;98312.34;2075224;28;20049;-66
2023/10/15 02:25:09;;;;;;;10.18;4.20;;;;;;;23.49;57.20;98317.22;2073586;28;20056;-67
2023/10/15 02:26:10;;;;;;;7.63;3.95;;;;;;;23.49;57.05;98309.09;2078308;28;20049;-67
2023/10/15 02:27:16;;;;;;;6.50;4.03;;;;;;;23.52;56.96;98314.00;2079120;28;20157;-67
2023/10/15 02:28:24;;;;;;;7.65;4.90;;;;;;;23.52;57.23;98309.41;2082978;28;20048;-67
2023/10/15 02:29:35;;;;;;;11.80;3.65;;;;;;;23.49;57.11;98317.22;2082420;28;20404;-67
2023/10/15 02:30:36;;;;;;;5.63;3.55;;;;;;;23.49;57.12;98314.50;2076836;28;20041;-66
2023/10/15 02:31:46;;;;;;;9.50;4.32;;;;;;;23.49;57.36;98322.63;2079829;28;20053;-67
2023/10/15 02:32:47;;;;;;;7.72;4.07;;;;;;;23.47;57.15;98319.34;2081881;28;20056;-67
2023/10/15 02:33:49;;;;;;;9.55;3.67;;;;;;;23.50;57.18;98316.13;2075750;28;20160;-67
2023/10/15 02:34:50;;;;;;;6.35;4.43;;;;;;;23.49;57.13;98315.31;2078705;28;20049;-67
2023/10/15 02:35:54;;;;;;;8.80;4.35;;;;;;;23.50;57.35;98318.84;2079932;28;20060;-67
2023/10/15 02:37:01;;;;;;;6.78;3.67;;;;;;;23.50;57.26;98324.25;2080532;28;20045;-67
2023/10/15 02:38:08;;;;;;;8.52;3.63;;;;;;;23.45;56.91;98322.28;2080219;28;20052;-66
2023/10/15 02:39:09;;;;;;;9.02;3.58;;;;;;;23.49;56.82;98322.63;2078765;28;20048;-66
2023/10/15 02:40:16;;;;;;;6.03;4.07;;;;;;;23.48;56.89;98329.09;2077713;28;20056;-67
2023/10/15 02:41:18;;;;;;;6.70;4.05;;;;;;;23.48;56.91;98329.09;2074412;28;20089;-67
2023/10/15 02:42:20;;;;;;;7.15;4.32;;;;;;;23.52;56.65;98330.25;2080136;28;20088;-67
2023/10/15 02:43:25;;;;;;;5.25;3.80;;;;;;;23.52;56.97;98338.38;2077710;28;20056;-67
2023/10/15 02:44:32;;;;;;;7.55;3.95;;;;;;;23.50;57.03;98324.25;2082249;28;20522;-66
2023/10/15 02:45:35;;;;;;;10.82;4.18;;;;;;;23.49;56.91;98328.03;2074324;28;20124;-66
2023/10/15 02:46:37;;;;;;;5.68;3.80;;;;;;;23.48;57.08;98327.19;2080112;28;20103;-66
2023/10/15 02:47:41;;;;;;;7.03;4.45;;;;;;;23.50;56.92;98335.09;2079659;28;20080;-67
2023/10/15 02:48:44;;;;;;;5.70;3.95;;;;;;;23.50;56.79;98335.09;2078268;28;20053;-66
2023/10/15 02:49:51;;;;;;;13.13;4.43;;;;;;;23.51;56.80;98331.31;2080144;28;20045;-66
2023/10/15 02:51:00;;;;;;;6.93;4.43;;;;;;;23.51;57.04;98323.19;2079663;28;20047;-67
2023/10/15 02:52:09;;;;;;;5.45;3.58;;;;;;;23.49;56.79;98322.63;2080218;28;20052;-67
2023/10/15 02:53:12;;;;;;;11.15;4.90;;;;;;;23.47;56.98;98324.75;2081682;28;20049;-66
2023/10/15 02:54:18;;;;;;;10.35;4.53;;;;;;;23.49;57.00;98323.44;2077750;28;20052;-67
2023/10/15 02:55:26;;;;;;;8.38;4.10;;;;;;;23.49;56.97;98319.91;2080049;28;20590;-67
2023/10/15 02:56:28;;;;;;;8.32;4.50;;;;;;;23.49;57.13;98323.44;2082849;28;20056;-67
2023/10/15 02:57:30;;;;;;;7.25;4.00;;;;;;;23.51;56.98;98328.59;2080618;28;20057;-67
2023/10/15 02:58:33;;;;;;;8.52;4.03;;;;;;;23.50;57.09;98325.06;2081696;28;20067;-66
2023/10/15 02:59:37;;;;;;;8.30;4.25;;;;;;;23.50;57.16;98318.84;2079052;28;20082;-66
2023/10/15 03:00:41;;;;;;;5.82;3.67;;;;;;;23.50;57.25;98318.84;2079188;28;20044;-66
2023/10/15 03:01:45;;;;;;;8.85;4.07;;;;;;;23.51;56.92;98320.47;2083667;28;20041;-67
2023/10/15 03:02:46;;;;;;;13.65;4.22;;;;;;;23.48;57.33;98318.25;2078781;28;20107;-67
2023/10/15 03:03:50;;;;;;;5.82;3.70;;;;;;;23.49;57.27;98328.03;2078579;28;20040;-67
2023/10/15 03:04:54;;;;;;;7.43;3.88;;;;;;;23.49;57.25;98323.44;2077505;28;20045;-67
2023/10/15 03:05:57;;;;;;;9.05;4.38;;;;;;;23.47;57.23;98322.84;2076197;28;20057;-66
2023/10/15 03:07:16;;;;;;;5.50;4.22;;;;;;;23.49;56.82;98325.34;2078979;28;20046;-67
2023/10/15 03:08:20;;;;;;;9.48;3.47;;;;;;;23.47;56.67;98332.88;2082556;28;20132;-67
2023/10/15 03:09:21;;;;;;;7.07;4.55;;;;;;;23.45;56.58;98322.28;2079982;28;20045;-67
2023/10/15 03:10:23;;;;;;;6.03;3.92;;;;;;;23.48;56.81;98323.66;2079757;28;20073;-66
2023/10/15 03:11:25;;;;;;;6.65;3.42;;;;;;;23.48;56.67;98331.78;2076662;28;20057;-67
2023/10/15 03:12:33;;;;;;;5.25;3.63;;;;;;;23.50;56.54;98329.66;2080613;28;20128;-67
2023/10/15 03:13:44;;;;;;;4.05;3.47;;;;;;;23.49;56.73;98330.75;2078855;28;20568;-66
2023/10/15 03:14:47;;;;;;;8.13;4.40;;;;;;;23.48;56.56;98321.78;2082564;28;20136;-67
2023/10/15 03:15:48;;;;;;;5.53;3.40;;;;;;;23.50;56.79;98326.97;2075836;28;20068;-66
2023/10/15 03:16:50;;;;;;;7.25;3.60;;;;;;;23.50;56.67;98332.38;2077047;28;20049;-66
2023/10/15 03:17:52;;;;;;;4.60;3.50;;;;;;;23.50;56.80;98329.66;2080869;28;20056;-66
2023/10/15 03:18:56;;;;;;;6.10;3.90;;;;;;;23.50;56.89;98330.47;2078007;28;20140;-67
2023/10/15 03:20:10;;;;;;;5.80;3.75;;;;;;;23.49;56.94;98330.75;2078545;28;20052;-66
2023/10/15 03:21:19;;;;;;;7.15;4.07;;;;;;;23.47;56.97;98324.75;2077778;28;20063;-67
2023/10/15 03:22:23;;;;;;;8.90;4.25;;;;;;;23.47;56.91;98322.03;2078734;28;20110;-67
2023/10/15 03:23:25;;;;;;;9.27;3.58;;;;;;;23.48;57.08;98321.78;2078559;28;20071;-67
2023/10/15 03:24:32;;;;;;;5.70;3.78;;;;;;;23.49;56.86;98319.91;2078301;28;20084;-67
2023/10/15 03:25:34;;;;;;;7.13;4.00;;;;;;;23.50;56.79;98319.66;2080603;28;20052;-66
2023/10/15 03:26:35;;;;;;;8.07;3.70;;;;;;;23.46;57.01;98317.66;2078256;28;20049;-67
2023/10/15 03:27:38;;;;;;;7.90;4.25;;;;;;;23.48;57.20;98323.66;2078759;28;20049;-66
2023/10/15 03:28:44;;;;;;;7.95;4.28;;;;;;;23.48;57.11;98326.38;2080571;28;20095;-67
2023/10/15 03:29:46;;;;;;;4.78;4.03;;;;;;;23.47;56.98;98322.03;2079018;28;20107;-67
2023/10/15 03:30:47;;;;;;;7.03;4.20;;;;;;;23.47;56.83;98322.03;2080953;28;20129;-67
2023/10/15 03:31:54;;;;;;;5.47;3.95;;;;;;;23.48;56.68;98320.97;2079417;28;20048;-66
2023/10/15 03:33:00;;;;;;;11.52;4.15;;;;;;;23.48;56.83;98323.66;2078354;28;20076;-67
2023/10/15 03:34:16;;;;;;;10.40;4.38;;;;;;;23.48;56.87;98318.25;2075984;28;20098;-67
2023/10/15 03:35:17;;;;;;;8.57;4.32;;;;;;;23.47;56.70;98319.34;2079855;28;20045;-67
2023/10/15 03:36:18;;;;;;;5.45;3.85;;;;;;;23.46;56.38;98312.25;2081102;28;20634;-67
2023/10/15 03:37:22;;;;;;;7.55;3.95;;;;;;;23.47;56.60;98308.50;2079205;28;20049;-67
2023/10/15 03:38:23;;;;;;;8.73;4.50;;;;;;;23.47;56.84;98314.72;2085200;28;20044;-67
2023/10/15 03:39:27;;;;;;;8.88;3.70;;;;;;;23.50;56.89;98297.19;2078772;28;20052;-67
2023/10/15 03:40:30;;;;;;;6.43;3.58;;;;;;;23.49;56.99;98306.38;2079337;28;20049;-67
2023/10/15 03:41:39;;;;;;;7.40;4.00;;;;;;;23.47;56.76;98297.69;2076772;28;20107;-67
2023/10/15 03:42:40;;;;;;;6.78;4.35;;;;;;;23.45;56.71;98299.81;2078540;28;20059;-66
2023/10/15 03:43:46;;;;;;;5.80;3.15;;;;;;;23.48;56.63;98299.31;2077280;28;20059;-67
2023/10/15 03:44:47;;;;;;;9.77;4.15;;;;;;;23.47;56.88;98294.97;2080424;28;20045;-67
2023/10/15 03:45:52;;;;;;;9.07;3.67;;;;;;;23.49;56.70;98290.16;2078166;28;20107;-67
2023/10/15 03:46:53;;;;;;;8.75;3.60;;;;;;;23.46;56.70;98290.59;2080242;28;20053;-66
2023/10/15 03:47:57;;;;;;;7.00;3.78;;;;;;;23.44;57.16;98287.34;2081360;28;20581;-67
2023/10/15 03:48:58;;;;;;;5.10;3.42;;;;;;;23.47;56.52;98287.66;2079722;28;22458;-66
2023/10/15 03:50:06;;;;;;;10.63;3.70;;;;;;;23.49;56.82;98292.84;2081150;28;20141;-67
2023/10/15 03:51:15;;;;;;;5.68;3.95;;;;;;;23.44;57.07;98288.16;2076996;28;20136;-68
2023/10/15 03:52:20;;;;;;;8.45;4.60;;;;;;;23.44;56.92;98281.94;2080471;28;20675;-66
2023/10/15 03:53:21;;;;;;;5.95;3.95;;;;;;;23.47;56.89;98281.44;2066681;28;20151;-67
2023/10/15 03:54:23;;;;;;;7.82;3.55;;;;;;;23.48;56.98;98288.47;2075871;28;20059;-67
2023/10/15 03:55:24;;;;;;;4.68;3.65;;;;;;;23.45;56.87;98291.69;2078312;28;20508;-66
2023/10/15 03:56:28;;;;;;;9.43;3.85;;;;;;;23.46;56.68;98291.44;2078546;28;20051;-67
2023/10/15 03:57:34;;;;;;;4.05;3.28;;;;;;;23.46;56.29;98296.88;2080176;28;20140;-67
2023/10/15 03:58:36;;;;;;;7.65;4.25;;;;;;;23.45;56.44;98297.91;2079631;28;20060;-68
2023/10/15 03:59:44;;;;;;;6.72;4.20;;;;;;;23.47;56.58;98300.38;2080331;28;20049;-66
2023/10/15 04:00:48;;;;;;;7.20;2.92;;;;;;;23.45;56.45;98303.31;2077579;28;20048;-66
2023/10/15 04:01:49;;;;;;;4.72;3.42;;;;;;;23.46;56.41;98298.72;2078844;28;20049;-67
2023/10/15 04:03:01;;;;;;;5.93;3.58;;;;;;;23.45;56.47;98299.81;2081254;28;20044;-66
2023/10/15 04:04:03;;;;;;;5.85;3.78;;;;;;;23.43;56.46;98297.34;2078417;28;20089;-67
2023/10/15 04:05:08;;;;;;;5.18;3.45;;;;;;;23.44;56.38;98295.47;2079302;28;21289;-66
2023/10/15 04:06:09;;;;;;;5.55;3.65;;;;;;;23.45;56.52;98294.38;2076106;28;20054;-67
2023/10/15 04:07:19;;;;;;;11.80;3.83;;;;;;;23.46;56.62;98301.44;2079719;28;20053;-67
2023/10/15 04:08:21;;;;;;;6.35;4.20;;;;;;;23.43;57.01;98294.66;2078741;28;22553;-67
2023/10/15 04:09:25;;;;;;;3.97;3.33;;;;;;;23.45;56.35;98300.63;2082088;28;20041;-67
2023/10/15 04:10:33;;;;;;;5.90;4.10;;;;;;;23.43;56.72;98300.06;2078328;28;20049;-67
2023/10/15 04:11:42;;;;;;;6.50;3.70;;;;;;;23.45;56.62;98297.09;2081544;28;20073;-66
2023/10/15 04:12:44;;;;;;;7.88;3.75;;;;;;;23.44;56.38;98288.16;2080530;28;20139;-67
2023/10/15 04:13:45;;;;;;;5.00;3.10;;;;;;;23.45;56.78;98288.97;2075575;28;20124;-66
2023/10/15 04:14:47;;;;;;;8.07;3.55;;;;;;;23.47;56.84;98286.84;2077102;28;20055;-66
2023/10/15 04:15:50;;;;;;;8.52;4.25;;;;;;;23.46;56.62;98288.75;2076464;28;20500;-67
2023/10/15 04:16:52;;;;;;;7.28;3.80;;;;;;;23.45;56.94;98291.69;2077314;28;20052;-66
2023/10/15 04:17:54;;;;;;;5.90;3.83;;;;;;;23.46;56.57;98277.06;2080813;28;20114;-67
2023/10/15 04:18:58;;;;;;;6.32;3.22;;;;;;;23.45;56.68;98284.38;2076997;28;20045;-66
2023/10/15 04:20:01;;;;;;;6.15;3.28;;;;;;;23.45;56.67;98286.25;2078690;28;20136;-66
2023/10/15 04:21:02;;;;;;;8.18;4.13;;;;;;;23.45;56.71;98289.78;2079407;28;20500;-67
2023/10/15 04:22:13;;;;;;;8.98;3.30;;;;;;;23.46;56.64;98286.03;2076852;28;20080;-67
2023/10/15 04:23:21;;;;;;;8.27;4.10;;;;;;;23.44;56.66;98276.50;2082356;28;20083;-67
2023/10/15 04:24:33;;;;;;;6.18;4.82;;;;;;;23.46;56.68;98285.19;2078772;28;20435;-66
2023/10/15 04:25:36;;;;;;;9.90;3.92;;;;;;;23.46;56.82;98286.03;2076826;28;20144;-67
2023/10/15 04:26:42;;;;;;;5.25;3.85;;;;;;;23.44;56.62;98280.03;2078731;28;20060;-66
2023/10/15 04:27:43;;;;;;;7.38;3.80;;;;;;;23.46;56.67;98282.47;2080298;28;20053;-67
2023/10/15 04:28:45;;;;;;;8.07;4.28;;;;;;;23.44;56.38;98287.34;2079495;28;20569;-66
2023/10/15 04:29:49;;;;;;;6.35;3.40;;;;;;;23.46;56.33;98279.78;2080189;28;20059;-66
2023/10/15 04:30:51;;;;;;;4.30;3.80;;;;;;;23.44;56.21;98280.03;2080020;28;20128;-68
2023/10/15 04:31:59;;;;;;;5.90;3.40;;;;;;;23.45;56.76;98275.44;2076038;28;20057;-68
2023/10/15 04:33:01;;;;;;;8.38;3.53;;;;;;;23.42;56.49;98274.84;2082724;28;20120;-66
2023/10/15 04:34:03;;;;;;;5.97;4.30;;;;;;;23.42;56.55;98277.56;2080098;28;20132;-67
2023/10/15 04:35:11;;;;;;;5.32;3.55;;;;;;;23.44;56.68;98271.91;2081071;28;20053;-67
2023/10/15 04:36:12;;;;;;;6.57;3.80;;;;;;;23.42;56.66;98271.34;2079887;28;20049;-67
2023/10/15 04:37:20;;;;;;;6.78;3.38;;;;;;;23.42;56.81;98269.44;2083005;28;20426;-67
2023/10/15 04:38:21;;;;;;;7.72;4.10;;;;;;;23.41;56.74;98278.63;2066188;28;20049;-66
2023/10/15 04:39:23;;;;;;;3.83;2.88;;;;;;;23.42;56.63;98269.44;2082057;28;20679;-67
2023/10/15 04:40:24;;;;;;;7.07;3.60;;;;;;;23.41;56.54;98269.69;2076361;28;20510;-66
2023/10/15 04:41:26;;;;;;;8.57;3.42;;;;;;;23.42;56.54;98269.44;2077162;28;20120;-66
2023/10/15 04:42:29;;;;;;;9.93;4.10;;;;;;;23.43;56.37;98264.88;2076371;28;20157;-66
2023/10/15 04:43:41;;;;;;;5.63;3.55;;;;;;;23.42;56.39;98265.91;2081307;28;20067;-67
2023/10/15 04:44:44;;;;;;;4.13;3.22;;;;;;;23.41;56.48;98265.09;2078009;28;20134;-67
2023/10/15 04:45:49;;;;;;;7.00;4.22;;;;;;;23.42;56.25;98271.34;2077423;28;20126;-66
2023/10/15 04:46:53;;;;;;;9.05;4.60;;;;;;;23.43;56.44;98264.88;2080750;28;20049;-66
2023/10/15 04:47:59;;;;;;;7.78;4.45;;;;;;;23.44;56.48;98263.81;2081159;28;20056;-67
2023/10/15 04:49:06;;;;;;;7.20;3.28;;;;;;;23.43;56.36;98262.16;2080372;28;20435;-67
2023/10/15 04:50:14;;;;;;;6.18;3.00;;;;;;;23.42;56.61;98264.03;2081910;28;20045;-66
2023/10/15 04:51:15;;;;;;;5.70;3.20;;;;;;;23.43;56.38;98262.16;2079947;28;20163;-67
2023/10/15 04:52:19;;;;;;;4.72;3.60;;;;;;;23.41;56.57;98256.97;2083002;28;20064;-67
2023/10/15 04:53:23;;;;;;;7.60;3.60;;;;;;;23.42;56.40;98268.63;2079957;28;20049;-66
2023/10/15 04:54:25;;;;;;;4.70;3.70;;;;;;;23.42;56.36;98264.03;2079174;28;20053;-66
2023/10/15 04:55:26;;;;;;;6.28;3.38;;;;;;;23.42;56.54;98264.03;2083037;28;20053;-67
2023/10/15 04:56:28;;;;;;;7.35;3.42;;;;;;;23.42;56.57;98263.22;2079811;28;20069;-67
2023/10/15 04:57:29;;;;;;;3.63;3.25;;;;;;;23.45;56.26;98264.63;2079429;28;20061;-67
2023/10/15 04:58:31;;;;;;;8.77;3.30;;;;;;;23.42;56.36;98266.72;2078868;28;20156;-66
2023/10/15 04:59:32;;;;;;;6.43;3.88;;;;;;;23.42;56.31;98253.19;2081207;28;20048;-67
2023/10/15 05:00:35;;;;;;;5.93;3.28;;;;;;;23.43;56.36;98259.47;2081299;28;20080;-67
2023/10/15 05:01:37;;;;;;;6.82;3.92;;;;;;;23.44;56.44;98260.28;2081655;28;20095;-66